Volgo-balt 229 — UHZF — position and weather

sailwx.info

Track history (hours):
 
Tides and Currents Weather Stations Pressure Air Temp Water Temp Dewpoint Dewpoint Depression Visibility Wind Speed Wind Dir Waves Ship Positions

Volgo-balt 229

Last reported at 2017-May-26 12:21 UTC. Time now 2017-May-27 23:17 UTC.
Position N 60°01' E 026°31'.

Length 113 m; draft 3.7 m.

Type: Ship. MMSI: 273336300.

Date/timePositionNaut miles runAvg speedWind from/ knotsBaromVisibWave heightAir tempDewpointWater temp
2017-May-26 12:21N 60°01' E 026°31'3 7.2
2017-May-26 12:00N 60°02' E 026°35'10 7.2
2017-May-26 10:33N 60°00' E 026°56'3 7.4
2017-May-26 10:10N 59°60' E 027°02'3 7.5
2017-May-26 09:47N 60°01' E 027°07'4 7.9
2017-May-26 09:19N 60°03' E 027°13'3 7.9
2017-May-26 09:00N 60°04' E 027°18'4 7.9
2017-May-26 08:30N 60°06' E 027°24'4 7.8
2017-May-26 08:00N 60°08' E 027°31'4 7.7
2017-May-26 07:30N 60°10' E 027°38'4 7.5
2017-May-26 07:00N 60°12' E 027°44'3 7.0
2017-May-26 06:30N 60°12' E 027°51'4 7.4
2017-May-26 06:00N 60°11' E 027°58'4 7.5
2017-May-26 05:30N 60°10' E 028°06'4 7.4
2017-May-26 05:00N 60°09' E 028°13'4 7.2
2017-May-26 04:29N 60°07' E 028°20'4 7.4
2017-May-26 04:00N 60°05' E 028°25'4 7.5
2017-May-26 03:31N 60°04' E 028°32'4 7.7
2017-May-26 03:00N 60°03' E 028°40'4 7.7
2017-May-26 02:28N 60°03' E 028°48'4 7.5
2017-May-26 01:56N 60°03' E 028°56'3 7.5
2017-May-26 01:30N 60°03' E 029°02'4 7.6
2017-May-26 01:01N 60°02' E 029°10'15 7.3
2017-May-25 22:58N 59°60' E 029°40'3 7.3
2017-May-25 22:30N 59°59' E 029°46'6 7.7
2017-May-25 21:46N 59°56' E 029°56'2 7.8
2017-May-25 21:31N 59°55' E 029°60'4 8.0
2017-May-25 21:01N 59°54' E 030°07'3 5.8
2017-May-25 20:31N 59°54' E 030°13'1 1.8
2017-May-25 19:58N 59°55' E 030°14'0 0.0
2017-May-25 19:28N 59°55' E 030°14'0 0.0
2017-May-25 18:58N 59°55' E 030°14'0 0.0
2017-May-25 18:28N 59°55' E 030°14'0 0.0
2017-May-25 17:58N 59°55' E 030°14'0 0.0
2017-May-25 17:25N 59°55' E 030°14'0 0.0
2017-May-25 16:55N 59°55' E 030°14'0 0.0
2017-May-25 16:28N 59°55' E 030°14'0 0.0
2017-May-25 15:58N 59°55' E 030°14'0 0.0
2017-May-25 15:28N 59°55' E 030°14'0 0.0
2017-May-25 14:58N 59°55' E 030°14'0 0.0
2017-May-25 13:58N 59°55' E 030°14'0 0.0
2017-May-25 13:28N 59°55' E 030°14'0 0.0
2017-May-25 12:58N 59°55' E 030°14'0 0.0
2017-May-25 12:28N 59°55' E 030°14'0 0.0
2017-May-25 11:58N 59°55' E 030°14'0 0.0
2017-May-25 11:28N 59°55' E 030°14'0 0.0
2017-May-25 10:58N 59°55' E 030°14'0 0.0
2017-May-25 10:28N 59°55' E 030°14'0 0.0
2017-May-25 09:58N 59°55' E 030°14'0 0.0
2017-May-25 09:28N 59°55' E 030°14'0 0.0
2017-May-25 08:58N 59°55' E 030°14'0 0.0
2017-May-25 08:28N 59°55' E 030°14'0 0.0
2017-May-25 07:58N 59°55' E 030°14'0 0.0
2017-May-25 07:28N 59°55' E 030°14'0 0.0
2017-May-25 06:58N 59°55' E 030°14'0 0.0
2017-May-25 06:28N 59°55' E 030°14'0 0.0
2017-May-25 05:58N 59°55' E 030°14'0 0.0
2017-May-25 05:28N 59°55' E 030°14'0 0.0
2017-May-25 04:58N 59°55' E 030°14'0 0.0
2017-May-25 04:28N 59°55' E 030°14'0 0.0
2017-May-25 03:58N 59°55' E 030°14'0 0.0
2017-May-25 03:28N 59°55' E 030°14'0 0.0
2017-May-25 02:58N 59°55' E 030°14'0 0.0
2017-May-25 02:28N 59°55' E 030°14'0 0.0
2017-May-25 01:58N 59°55' E 030°14'0 0.0
2017-May-25 01:28N 59°55' E 030°14'0 0.0
2017-May-25 00:58N 59°55' E 030°14'0 0.0
2017-May-25 00:28N 59°55' E 030°14'0 0.0
2017-May-24 23:58N 59°55' E 030°14'0 0.0
2017-May-24 23:28N 59°55' E 030°14'0 0.0
2017-May-24 22:58N 59°55' E 030°14'0 0.0
2017-May-24 22:25N 59°55' E 030°14'0 0.0
2017-May-24 21:58N 59°55' E 030°14'0 0.0
2017-May-24 21:28N 59°55' E 030°14'0 0.0
2017-May-24 20:58N 59°55' E 030°14'0 0.0
2017-May-24 20:28N 59°55' E 030°14'0 0.0
2017-May-24 19:55N 59°55' E 030°14'0 0.0
2017-May-24 19:25N 59°55' E 030°14'0 0.0
2017-May-24 18:58N 59°55' E 030°14'0 0.0
2017-May-24 18:28N 59°55' E 030°14'0 0.0
2017-May-24 17:55N 59°55' E 030°14'0 0.0
2017-May-24 17:28N 59°55' E 030°14'0 0.0
2017-May-24 16:58N 59°55' E 030°14'0 0.0
2017-May-24 16:28N 59°55' E 030°14'0 0.0
2017-May-24 15:58N 59°55' E 030°14'0 0.0
2017-May-24 15:28N 59°55' E 030°14'0 0.0
2017-May-24 14:58N 59°55' E 030°14'0 0.0
2017-May-24 14:28N 59°55' E 030°14'0 0.0
2017-May-24 13:28N 59°55' E 030°14'0 0.0
2017-May-24 12:58N 59°55' E 030°14'0 0.0
2017-May-24 12:28N 59°55' E 030°14'0 0.0
2017-May-24 11:58N 59°55' E 030°14'0 0.0
2017-May-24 11:28N 59°55' E 030°14'0 0.0
2017-May-24 10:58N 59°55' E 030°14'0 0.0
2017-May-24 10:28N 59°55' E 030°14'0 0.0
2017-May-24 09:58N 59°55' E 030°14'0 0.0
2017-May-24 09:28N 59°55' E 030°14'0 0.0
2017-May-24 08:58N 59°55' E 030°14'0 0.0
2017-May-24 08:28N 59°55' E 030°14'0 0.0
2017-May-24 07:58N 59°55' E 030°14'0 0.0
2017-May-24 07:28N 59°55' E 030°14'0 0.0
2017-May-24 06:58N 59°55' E 030°14'0 0.0
2017-May-24 06:28N 59°55' E 030°14'0 0.0
2017-May-24 05:58N 59°55' E 030°14'0 0.0
2017-May-24 05:28N 59°55' E 030°14'0 0.0
2017-May-24 04:58N 59°55' E 030°14'0 0.0
2017-May-24 04:28N 59°55' E 030°14'0 0.0
2017-May-24 03:58N 59°55' E 030°14'0 0.0
2017-May-24 03:28N 59°55' E 030°14'0 0.0
2017-May-24 02:58N 59°55' E 030°14'0 0.0
2017-May-24 02:28N 59°55' E 030°14'0 0.0
2017-May-24 01:58N 59°55' E 030°14'0 0.0
2017-May-24 01:30N 59°55' E 030°14'2 4.5
2017-May-24 01:00N 59°56' E 030°17'4 7.2
2017-May-24 00:30N 59°57' E 030°24'4 8.4
2017-May-24 00:00N 59°53' E 030°27'4 7.6
2017-May-23 23:30N 59°50' E 030°31'0 0.1
2017-May-23 22:58N 59°50' E 030°31'0 0.0
2017-May-23 22:25N 59°50' E 030°31'0 0.0
2017-May-23 21:52N 59°50' E 030°31'0 0.0
2017-May-23 21:28N 59°50' E 030°31'0 0.0
2017-May-23 20:58N 59°50' E 030°31'0 0.0
2017-May-23 19:19N 59°50' E 030°31'0 0.0
2017-May-23 18:49N 59°50' E 030°31'0 0.0
2017-May-23 18:07N 59°50' E 030°31'0 0.0
2017-May-23 17:31N 59°50' E 030°31'0 0.0
2017-May-23 17:19N 59°50' E 030°31'0 0.0
2017-May-23 16:52N 59°50' E 030°31'0 0.0
2017-May-23 16:19N 59°50' E 030°31'0 0.0
2017-May-23 15:46N 59°50' E 030°31'0 0.0
2017-May-23 15:19N 59°50' E 030°31'0 0.0
2017-May-23 14:55N 59°50' E 030°31'0 0.0
2017-May-23 14:31N 59°50' E 030°31'0 0.0
2017-May-23 13:09N 59°50' E 030°31'0 0.0
2017-May-23 12:33N 59°50' E 030°31'0 0.0
2017-May-23 11:27N 59°50' E 030°31'0 0.0
2017-May-23 10:54N 59°50' E 030°31'0 0.0
2017-May-23 10:29N 59°50' E 030°31'0 0.0
2017-May-23 09:56N 59°50' E 030°31'0 0.0
2017-May-23 09:30N 59°50' E 030°31'0 0.0
2017-May-23 09:00N 59°50' E 030°31'1 1.5
2017-May-23 08:30N 59°51' E 030°30'2 3.1
2017-May-23 07:59N 59°50' E 030°33'  
Track history (hours):
 
Tides and Currents Weather Stations Pressure Air Temp Water Temp Dewpoint Dewpoint Depression Visibility Wind Speed Wind Dir Waves Ship Positions

Volgo-balt 229

Last reported at 2017-May-26 12:21 UTC. Time now 2017-May-27 23:17 UTC.
Position N 60°01' E 026°31'.

Length 113 m; draft 3.7 m.

Type: Ship. MMSI: 273336300.

Date/timePositionNaut miles runAvg speedWind from/ knotsBaromVisibWave heightAir tempDewpointWater temp
2017-May-26 12:21N 60°01' E 026°31'3 7.2
2017-May-26 12:00N 60°02' E 026°35'10 7.2
2017-May-26 10:33N 60°00' E 026°56'3 7.4
2017-May-26 10:10N 59°60' E 027°02'3 7.5
2017-May-26 09:47N 60°01' E 027°07'4 7.9
2017-May-26 09:19N 60°03' E 027°13'3 7.9
2017-May-26 09:00N 60°04' E 027°18'4 7.9
2017-May-26 08:30N 60°06' E 027°24'4 7.8
2017-May-26 08:00N 60°08' E 027°31'4 7.7
2017-May-26 07:30N 60°10' E 027°38'4 7.5
2017-May-26 07:00N 60°12' E 027°44'3 7.0
2017-May-26 06:30N 60°12' E 027°51'4 7.4
2017-May-26 06:00N 60°11' E 027°58'4 7.5
2017-May-26 05:30N 60°10' E 028°06'4 7.4
2017-May-26 05:00N 60°09' E 028°13'4 7.2
2017-May-26 04:29N 60°07' E 028°20'4 7.4
2017-May-26 04:00N 60°05' E 028°25'4 7.5
2017-May-26 03:31N 60°04' E 028°32'4 7.7
2017-May-26 03:00N 60°03' E 028°40'4 7.7
2017-May-26 02:28N 60°03' E 028°48'4 7.5
2017-May-26 01:56N 60°03' E 028°56'3 7.5
2017-May-26 01:30N 60°03' E 029°02'4 7.6
2017-May-26 01:01N 60°02' E 029°10'15 7.3
2017-May-25 22:58N 59°60' E 029°40'3 7.3
2017-May-25 22:30N 59°59' E 029°46'6 7.7
2017-May-25 21:46N 59°56' E 029°56'2 7.8
2017-May-25 21:31N 59°55' E 029°60'4 8.0
2017-May-25 21:01N 59°54' E 030°07'3 5.8
2017-May-25 20:31N 59°54' E 030°13'1 1.8
2017-May-25 19:58N 59°55' E 030°14'0 0.0
2017-May-25 19:28N 59°55' E 030°14'0 0.0
2017-May-25 18:58N 59°55' E 030°14'0 0.0
2017-May-25 18:28N 59°55' E 030°14'0 0.0
2017-May-25 17:58N 59°55' E 030°14'0 0.0
2017-May-25 17:25N 59°55' E 030°14'0 0.0
2017-May-25 16:55N 59°55' E 030°14'0 0.0
2017-May-25 16:28N 59°55' E 030°14'0 0.0
2017-May-25 15:58N 59°55' E 030°14'0 0.0
2017-May-25 15:28N 59°55' E 030°14'0 0.0
2017-May-25 14:58N 59°55' E 030°14'0 0.0
2017-May-25 13:58N 59°55' E 030°14'0 0.0
2017-May-25 13:28N 59°55' E 030°14'0 0.0
2017-May-25 12:58N 59°55' E 030°14'0 0.0
2017-May-25 12:28N 59°55' E 030°14'0 0.0
2017-May-25 11:58N 59°55' E 030°14'0 0.0
2017-May-25 11:28N 59°55' E 030°14'0 0.0
2017-May-25 10:58N 59°55' E 030°14'0 0.0
2017-May-25 10:28N 59°55' E 030°14'0 0.0
2017-May-25 09:58N 59°55' E 030°14'0 0.0
2017-May-25 09:28N 59°55' E 030°14'0 0.0
2017-May-25 08:58N 59°55' E 030°14'0 0.0
2017-May-25 08:28N 59°55' E 030°14'0 0.0
2017-May-25 07:58N 59°55' E 030°14'0 0.0
2017-May-25 07:28N 59°55' E 030°14'0 0.0
2017-May-25 06:58N 59°55' E 030°14'0 0.0
2017-May-25 06:28N 59°55' E 030°14'0 0.0
2017-May-25 05:58N 59°55' E 030°14'0 0.0
2017-May-25 05:28N 59°55' E 030°14'0 0.0
2017-May-25 04:58N 59°55' E 030°14'0 0.0
2017-May-25 04:28N 59°55' E 030°14'0 0.0
2017-May-25 03:58N 59°55' E 030°14'0 0.0
2017-May-25 03:28N 59°55' E 030°14'0 0.0
2017-May-25 02:58N 59°55' E 030°14'0 0.0
2017-May-25 02:28N 59°55' E 030°14'0 0.0
2017-May-25 01:58N 59°55' E 030°14'0 0.0
2017-May-25 01:28N 59°55' E 030°14'0 0.0
2017-May-25 00:58N 59°55' E 030°14'0 0.0
2017-May-25 00:28N 59°55' E 030°14'0 0.0
2017-May-24 23:58N 59°55' E 030°14'0 0.0
2017-May-24 23:28N 59°55' E 030°14'0 0.0
2017-May-24 22:58N 59°55' E 030°14'0 0.0
2017-May-24 22:25N 59°55' E 030°14'0 0.0
2017-May-24 21:58N 59°55' E 030°14'0 0.0
2017-May-24 21:28N 59°55' E 030°14'0 0.0
2017-May-24 20:58N 59°55' E 030°14'0 0.0
2017-May-24 20:28N 59°55' E 030°14'0 0.0
2017-May-24 19:55N 59°55' E 030°14'0 0.0
2017-May-24 19:25N 59°55' E 030°14'0 0.0
2017-May-24 18:58N 59°55' E 030°14'0 0.0
2017-May-24 18:28N 59°55' E 030°14'0 0.0
2017-May-24 17:55N 59°55' E 030°14'0 0.0
2017-May-24 17:28N 59°55' E 030°14'0 0.0
2017-May-24 16:58N 59°55' E 030°14'0 0.0
2017-May-24 16:28N 59°55' E 030°14'0 0.0
2017-May-24 15:58N 59°55' E 030°14'0 0.0
2017-May-24 15:28N 59°55' E 030°14'0 0.0
2017-May-24 14:58N 59°55' E 030°14'0 0.0
2017-May-24 14:28N 59°55' E 030°14'0 0.0
2017-May-24 13:28N 59°55' E 030°14'0 0.0
2017-May-24 12:58N 59°55' E 030°14'0 0.0
2017-May-24 12:28N 59°55' E 030°14'0 0.0
2017-May-24 11:58N 59°55' E 030°14'0 0.0
2017-May-24 11:28N 59°55' E 030°14'0 0.0
2017-May-24 10:58N 59°55' E 030°14'0 0.0
2017-May-24 10:28N 59°55' E 030°14'0 0.0
2017-May-24 09:58N 59°55' E 030°14'0 0.0
2017-May-24 09:28N 59°55' E 030°14'0 0.0
2017-May-24 08:58N 59°55' E 030°14'0 0.0
2017-May-24 08:28N 59°55' E 030°14'0 0.0
2017-May-24 07:58N 59°55' E 030°14'0 0.0
2017-May-24 07:28N 59°55' E 030°14'0 0.0
2017-May-24 06:58N 59°55' E 030°14'0 0.0
2017-May-24 06:28N 59°55' E 030°14'0 0.0
2017-May-24 05:58N 59°55' E 030°14'0 0.0
2017-May-24 05:28N 59°55' E 030°14'0 0.0
2017-May-24 04:58N 59°55' E 030°14'0 0.0
2017-May-24 04:28N 59°55' E 030°14'0 0.0
2017-May-24 03:58N 59°55' E 030°14'0 0.0
2017-May-24 03:28N 59°55' E 030°14'0 0.0
2017-May-24 02:58N 59°55' E 030°14'0 0.0
2017-May-24 02:28N 59°55' E 030°14'0 0.0
2017-May-24 01:58N 59°55' E 030°14'0 0.0
2017-May-24 01:30N 59°55' E 030°14'2 4.5
2017-May-24 01:00N 59°56' E 030°17'4 7.2
2017-May-24 00:30N 59°57' E 030°24'4 8.4
2017-May-24 00:00N 59°53' E 030°27'4 7.6
2017-May-23 23:30N 59°50' E 030°31'0 0.1
2017-May-23 22:58N 59°50' E 030°31'0 0.0
2017-May-23 22:25N 59°50' E 030°31'0 0.0
2017-May-23 21:52N 59°50' E 030°31'0 0.0
2017-May-23 21:28N 59°50' E 030°31'0 0.0
2017-May-23 20:58N 59°50' E 030°31'0 0.0
2017-May-23 19:19N 59°50' E 030°31'0 0.0
2017-May-23 18:49N 59°50' E 030°31'0 0.0
2017-May-23 18:07N 59°50' E 030°31'0 0.0
2017-May-23 17:31N 59°50' E 030°31'0 0.0
2017-May-23 17:19N 59°50' E 030°31'0 0.0
2017-May-23 16:52N 59°50' E 030°31'0 0.0
2017-May-23 16:19N 59°50' E 030°31'0 0.0
2017-May-23 15:46N 59°50' E 030°31'0 0.0
2017-May-23 15:19N 59°50' E 030°31'0 0.0
2017-May-23 14:55N 59°50' E 030°31'0 0.0
2017-May-23 14:31N 59°50' E 030°31'0 0.0
2017-May-23 13:09N 59°50' E 030°31'0 0.0
2017-May-23 12:33N 59°50' E 030°31'0 0.0
2017-May-23 11:27N 59°50' E 030°31'0 0.0
2017-May-23 10:54N 59°50' E 030°31'0 0.0
2017-May-23 10:29N 59°50' E 030°31'0 0.0
2017-May-23 09:56N 59°50' E 030°31'0 0.0
2017-May-23 09:30N 59°50' E 030°31'0 0.0
2017-May-23 09:00N 59°50' E 030°31'1 1.5
2017-May-23 08:30N 59°51' E 030°30'2 3.1
2017-May-23 07:59N 59°50' E 030°33'  

Dump ship's entire track history